Time;durP1;ratioP1;P1;durP2;ratioP2;P2;SDS_P1;SDS_P2;PMS_P1;PMS_P2;Temp;Humidity;BMP_temperature;BMP_pressure;BME280_temperature;BME280_humidity;BME280_pressure;Samples;Min_cycle;Max_cycle;Signal;HPM_P1;HPM_P2
2021/11/29 00:00:15;;;;;;;0.17;0.17;;;0.50;93.40;;;;;;6187569;23;20005;-76
2021/11/29 00:02:42;;;;;;;0.38;0.20;;;0.50;93.40;;;;;;6212653;23;20016;-76
2021/11/29 00:05:09;;;;;;;0.30;0.28;;;0.50;93.40;;;;;;6187559;23;20467;-76
2021/11/29 00:07:35;;;;;;;0.60;0.30;;;0.60;93.40;;;;;;6212735;23;20063;-76
2021/11/29 00:10:00;;;;;;;0.40;0.20;;;0.60;93.40;;;;;;6199861;23;20001;-75
2021/11/29 00:12:26;;;;;;;0.32;0.30;;;0.60;93.40;;;;;;6187275;23;20083;-76
2021/11/29 00:14:52;;;;;;;0.32;0.30;;;0.70;93.40;;;;;;6187504;23;20055;-76
2021/11/29 00:17:18;;;;;;;0.22;0.20;;;0.70;93.30;;;;;;6214282;23;19997;-75
2021/11/29 00:19:43;;;;;;;0.55;0.43;;;0.80;93.30;;;;;;6213980;23;19996;-76
2021/11/29 00:22:09;;;;;;;0.40;0.20;;;0.80;93.20;;;;;;6187116;23;20083;-76
2021/11/29 00:24:35;;;;;;;0.20;0.20;;;0.90;93.20;;;;;;6187205;23;19997;-76
2021/11/29 00:27:00;;;;;;;0.47;0.30;;;0.90;93.20;;;;;;6161439;23;20004;-76
2021/11/29 00:29:26;;;;;;;0.55;0.30;;;0.90;93.10;;;;;;6211939;23;20083;-76
2021/11/29 00:31:52;;;;;;;0.25;0.20;;;1.00;93.10;;;;;;6187032;23;19993;-76
2021/11/29 00:34:18;;;;;;;0.50;0.20;;;1.10;93.10;;;;;;6214083;23;19997;-76
2021/11/29 00:36:44;;;;;;;0.40;0.20;;;1.10;93.10;;;;;;6212588;23;20001;-77
2021/11/29 00:39:10;;;;;;;0.20;0.20;;;1.20;93.00;;;;;;6212153;23;20012;-78
2021/11/29 00:41:35;;;;;;;0.82;0.30;;;1.30;93.00;;;;;;6187218;23;20005;-77
2021/11/29 00:44:01;;;;;;;0.20;0.20;;;1.30;92.90;;;;;;6212042;23;20007;-76
2021/11/29 00:46:27;;;;;;;0.88;0.30;;;1.40;92.80;;;;;;6214081;23;20333;-77
2021/11/29 00:48:53;;;;;;;1.08;0.20;;;1.50;92.80;;;;;;6213808;23;20005;-76
2021/11/29 00:51:18;;;;;;;0.77;0.30;;;1.40;92.70;;;;;;6211420;23;20420;-76
2021/11/29 00:53:46;;;;;;;0.25;0.20;;;1.50;92.80;;;;;;6186843;23;20027;-77
2021/11/29 00:56:12;;;;;;;0.10;0.10;;;1.50;92.80;;;;;;6187333;23;20009;-76
2021/11/29 00:58:38;;;;;;;0.10;0.10;;;1.50;92.80;;;;;;6213800;23;20028;-77
2021/11/29 01:01:04;;;;;;;0.10;0.10;;;1.50;92.80;;;;;;6196257;23;20093;-77
2021/11/29 01:03:30;;;;;;;0.43;0.10;;;1.50;92.80;;;;;;6213554;23;20239;-77
2021/11/29 01:05:55;;;;;;;0.10;0.10;;;1.50;92.80;;;;;;6213376;23;20424;-76
2021/11/29 01:08:21;;;;;;;0.13;0.13;;;1.40;92.80;;;;;;6213335;23;20012;-77
2021/11/29 01:10:47;;;;;;;0.43;0.15;;;1.40;92.80;;;;;;6205298;23;20012;-76
2021/11/29 01:13:12;;;;;;;0.28;0.10;;;1.40;92.90;;;;;;6211857;23;20024;-77
2021/11/29 01:15:38;;;;;;;0.25;0.10;;;1.30;92.90;;;;;;6211730;23;20421;-76
2021/11/29 01:18:11;;;;;;;0.17;0.17;;;1.30;93.00;;;;;;6211791;23;20005;-77
2021/11/29 01:20:39;;;;;;;0.17;0.17;;;1.30;93.00;;;;;;6223425;23;20020;-76
2021/11/29 01:23:05;;;;;;;0.28;0.13;;;1.30;93.00;;;;;;6186476;23;20005;-76
2021/11/29 01:25:32;;;;;;;0.10;0.10;;;1.30;93.00;;;;;;6211699;23;20000;-76
2021/11/29 01:27:58;;;;;;;0.10;0.10;;;1.20;93.30;;;;;;6208300;23;20013;-76
2021/11/29 01:30:24;;;;;;;0.10;0.10;;;1.20;93.10;;;;;;6211793;23;20429;-76
2021/11/29 01:32:49;;;;;;;0.10;0.10;;;1.20;93.10;;;;;;6213184;23;19996;-76
2021/11/29 01:35:15;;;;;;;0.30;0.10;;;1.20;93.10;;;;;;6208505;23;20013;-76
2021/11/29 01:37:41;;;;;;;0.10;0.10;;;1.20;93.20;;;;;;6213633;23;20028;-76
2021/11/29 01:40:09;;;;;;;0.45;0.10;;;1.20;93.20;;;;;;6213140;23;20055;-77
2021/11/29 01:42:34;;;;;;;1.35;0.10;;;1.10;93.20;;;;;;6211494;23;20008;-76
2021/11/29 01:45:01;;;;;;;0.00;0.00;;;1.20;93.20;;;;;;6213012;23;20000;-75
2021/11/29 01:47:28;;;;;;;0.10;0.10;;;1.20;93.20;;;;;;6211572;23;20009;-75
2021/11/29 01:49:54;;;;;;;0.10;0.10;;;1.20;93.20;;;;;;6213612;23;20035;-76
2021/11/29 01:52:20;;;;;;;0.05;0.05;;;1.20;93.20;;;;;;6213614;23;20298;-76
2021/11/29 01:54:46;;;;;;;0.17;0.10;;;1.20;93.10;;;;;;6213413;23;20001;-75
2021/11/29 01:57:12;;;;;;;0.00;0.00;;;1.10;93.10;;;;;;6205073;23;20005;-75
2021/11/29 01:59:38;;;;;;;0.38;0.20;;;1.20;93.10;;;;;;6212883;23;20032;-75
2021/11/29 02:02:04;;;;;;;0.63;0.10;;;1.10;93.10;;;;;;6212364;23;20028;-75
2021/11/29 02:04:30;;;;;;;0.45;0.10;;;1.10;93.30;;;;;;6163010;23;20417;-75
2021/11/29 02:06:56;;;;;;;0.20;0.20;;;1.10;93.20;;;;;;6213053;23;20025;-75
2021/11/29 02:09:22;;;;;;;0.10;0.10;;;1.10;93.20;;;;;;6214662;23;20013;-75
2021/11/29 02:11:47;;;;;;;0.10;0.10;;;1.10;93.20;;;;;;6214633;23;20089;-75
2021/11/29 02:14:13;;;;;;;0.10;0.10;;;1.10;93.10;;;;;;6187774;23;20087;-75
2021/11/29 02:16:39;;;;;;;0.13;0.10;;;1.20;93.10;;;;;;6214506;23;19997;-76
2021/11/29 02:19:06;;;;;;;0.10;0.10;;;1.10;93.10;;;;;;6212670;23;20016;-76
2021/11/29 02:21:33;;;;;;;0.10;0.10;;;1.20;93.10;;;;;;6212658;23;20011;-75
2021/11/29 02:24:02;;;;;;;0.20;0.20;;;1.10;93.10;;;;;;6212840;23;20094;-75
2021/11/29 02:26:32;;;;;;;0.10;0.10;;;1.10;93.10;;;;;;6212552;23;20062;-75
2021/11/29 02:29:01;;;;;;;0.00;0.00;;;1.20;93.10;;;;;;6214589;23;20013;-75
2021/11/29 02:31:31;;;;;;;0.10;0.10;;;1.20;93.20;;;;;;6213181;23;20000;-75
2021/11/29 02:33:57;;;;;;;0.10;0.10;;;1.10;93.10;;;;;;6213008;23;20087;-75
2021/11/29 02:36:23;;;;;;;0.38;0.20;;;1.10;93.10;;;;;;6187848;23;20025;-75
2021/11/29 02:38:49;;;;;;;0.10;0.10;;;1.10;93.10;;;;;;6214460;23;20007;-75
2021/11/29 02:41:15;;;;;;;0.10;0.10;;;1.10;93.10;;;;;;6212737;23;20456;-75
2021/11/29 02:43:42;;;;;;;0.50;0.10;;;1.10;93.40;;;;;;6214279;23;20076;-75
2021/11/29 02:46:07;;;;;;;0.10;0.10;;;1.00;93.10;;;;;;6187749;23;20075;-75
2021/11/29 02:48:43;;;;;;;0.22;0.20;;;1.10;93.20;;;;;;6185437;23;20040;-75
2021/11/29 02:51:28;;;;;;;0.40;0.10;;;1.00;93.20;;;;;;6212873;23;20019;-74
2021/11/29 02:54:02;;;;;;;0.10;0.10;;;1.00;93.20;;;;;;6212550;23;20420;-75
2021/11/29 02:56:29;;;;;;;0.20;0.10;;;1.00;93.20;;;;;;6214336;23;20004;-74
2021/11/29 02:58:55;;;;;;;0.10;0.10;;;1.00;93.20;;;;;;6212520;23;20017;-75
2021/11/29 03:01:20;;;;;;;0.10;0.10;;;1.00;93.20;;;;;;6194033;23;20499;-75
2021/11/29 03:03:49;;;;;;;0.05;0.05;;;1.00;93.20;;;;;;6213957;23;20015;-75
2021/11/29 03:06:15;;;;;;;0.08;0.08;;;1.00;93.10;;;;;;6237382;23;20019;-75
2021/11/29 03:08:41;;;;;;;0.30;0.10;;;1.00;93.10;;;;;;6213865;23;20028;-75
2021/11/29 03:11:07;;;;;;;0.30;0.15;;;1.00;93.20;;;;;;6214153;23;20004;-75
2021/11/29 03:13:33;;;;;;;0.10;0.10;;;1.00;93.20;;;;;;6213828;23;20031;-75
2021/11/29 03:15:59;;;;;;;0.38;0.10;;;1.00;93.20;;;;;;6212385;23;20004;-75
2021/11/29 03:18:30;;;;;;;0.00;0.00;;;1.00;93.20;;;;;;6187254;23;20008;-75
2021/11/29 03:20:55;;;;;;;0.82;0.05;;;1.00;93.20;;;;;;6187276;23;20087;-75
2021/11/29 03:23:21;;;;;;;0.00;0.00;;;1.00;93.20;;;;;;6206102;23;20040;-76
2021/11/29 03:25:47;;;;;;;0.00;0.00;;;1.00;93.20;;;;;;6214486;23;20004;-76
2021/11/29 03:28:14;;;;;;;0.00;0.00;;;1.00;93.20;;;;;;6213014;23;20012;-75
2021/11/29 03:30:40;;;;;;;0.00;0.00;;;1.00;93.10;;;;;;6214278;23;20004;-75
2021/11/29 03:33:06;;;;;;;0.40;0.10;;;1.00;93.10;;;;;;6212110;23;20005;-75
2021/11/29 03:35:32;;;;;;;0.15;0.08;;;0.90;93.10;;;;;;6187407;23;20444;-75
2021/11/29 03:37:57;;;;;;;0.03;0.03;;;1.00;93.20;;;;;;6212311;23;20003;-75
2021/11/29 03:40:23;;;;;;;0.10;0.10;;;1.00;93.20;;;;;;6212750;23;20004;-75
2021/11/29 03:42:49;;;;;;;0.00;0.00;;;0.90;93.20;;;;;;6212588;23;20038;-76
2021/11/29 03:45:15;;;;;;;0.43;0.20;;;0.90;93.20;;;;;;6214139;23;20005;-75
2021/11/29 03:47:41;;;;;;;0.10;0.10;;;0.90;93.20;;;;;;6212055;23;20028;-75
2021/11/29 03:50:07;;;;;;;0.00;0.00;;;0.90;93.20;;;;;;6199555;23;20012;-75
2021/11/29 03:52:33;;;;;;;0.03;0.03;;;1.00;93.20;;;;;;6213728;23;20060;-75
2021/11/29 03:54:59;;;;;;;0.00;0.00;;;0.90;93.20;;;;;;6206680;23;20008;-76
2021/11/29 03:57:25;;;;;;;0.00;0.00;;;0.90;93.20;;;;;;6187471;23;20032;-76
2021/11/29 03:59:50;;;;;;;0.10;0.10;;;0.90;93.20;;;;;;6213819;23;20016;-76
2021/11/29 04:02:16;;;;;;;0.00;0.00;;;0.90;93.20;;;;;;6212355;23;20324;-76
2021/11/29 04:04:42;;;;;;;0.28;0.10;;;0.90;93.20;;;;;;6162337;23;20008;-75
2021/11/29 04:07:08;;;;;;;0.00;0.00;;;0.90;93.30;;;;;;6205915;23;20005;-76
2021/11/29 04:09:33;;;;;;;0.00;0.00;;;0.90;93.20;;;;;;6209396;23;20451;-76
2021/11/29 04:11:59;;;;;;;0.10;0.10;;;0.80;93.20;;;;;;6212364;23;20004;-76
2021/11/29 04:14:25;;;;;;;0.10;0.10;;;0.90;93.20;;;;;;6205966;23;20011;-75
2021/11/29 04:16:51;;;;;;;0.93;0.20;;;0.90;93.20;;;;;;6162146;23;20305;-76
2021/11/29 04:19:16;;;;;;;0.10;0.10;;;0.90;93.10;;;;;;6187173;23;20005;-75
2021/11/29 04:21:43;;;;;;;0.10;0.10;;;0.90;93.20;;;;;;6213614;23;20425;-76
2021/11/29 04:24:09;;;;;;;0.20;0.20;;;0.90;93.10;;;;;;6187320;23;20040;-76
2021/11/29 04:26:35;;;;;;;0.63;0.13;;;0.90;93.20;;;;;;6208387;23;20491;-76
2021/11/29 04:29:07;;;;;;;0.10;0.10;;;0.90;93.20;;;;;;6212894;23;20089;-75
2021/11/29 04:31:32;;;;;;;0.20;0.20;;;0.80;93.20;;;;;;6212162;23;20004;-76
2021/11/29 04:33:58;;;;;;;0.22;0.20;;;0.90;93.20;;;;;;6187252;23;20024;-76
2021/11/29 04:36:24;;;;;;;0.15;0.15;;;0.90;93.20;;;;;;6212230;23;20009;-75
2021/11/29 04:38:50;;;;;;;0.17;0.10;;;0.80;93.20;;;;;;6212310;23;20008;-75
2021/11/29 04:41:15;;;;;;;0.13;0.10;;;0.90;93.20;;;;;;6212201;23;20008;-75
2021/11/29 04:43:41;;;;;;;0.10;0.10;;;0.80;93.20;;;;;;6212043;23;20088;-75
2021/11/29 04:46:07;;;;;;;0.20;0.20;;;0.90;93.30;;;;;;6213850;23;20076;-75
2021/11/29 04:48:32;;;;;;;0.10;0.10;;;0.90;93.30;;;;;;6211946;23;20032;-75
2021/11/29 04:50:58;;;;;;;0.68;0.30;;;0.90;93.20;;;;;;6211789;23;20004;-75
2021/11/29 04:53:24;;;;;;;0.10;0.10;;;0.90;93.20;;;;;;6211899;23;20096;-76
2021/11/29 04:55:50;;;;;;;0.22;0.20;;;0.90;93.20;;;;;;6199908;23;20078;-76
2021/11/29 04:58:16;;;;;;;0.20;0.10;;;0.80;93.20;;;;;;6213612;23;20007;-75
2021/11/29 05:00:41;;;;;;;0.10;0.10;;;0.90;93.20;;;;;;6186732;23;20059;-75
2021/11/29 05:03:07;;;;;;;0.08;0.08;;;0.80;93.20;;;;;;6187258;23;20327;-75
2021/11/29 05:05:33;;;;;;;0.22;0.15;;;0.80;93.20;;;;;;6213781;23;20007;-75
2021/11/29 05:07:58;;;;;;;0.25;0.20;;;0.80;93.20;;;;;;6213765;23;20005;-76
2021/11/29 05:10:24;;;;;;;0.08;0.08;;;0.80;93.30;;;;;;6205579;23;20020;-75
2021/11/29 05:12:50;;;;;;;0.03;0.03;;;0.80;93.30;;;;;;6206026;23;20011;-75
2021/11/29 05:15:16;;;;;;;0.20;0.20;;;0.80;93.30;;;;;;6212059;23;20001;-76
2021/11/29 05:17:41;;;;;;;0.10;0.10;;;0.80;93.30;;;;;;6162147;23;20008;-76
2021/11/29 05:20:08;;;;;;;0.20;0.20;;;0.80;93.40;;;;;;6213923;23;20463;-76
2021/11/29 05:22:34;;;;;;;0.00;0.00;;;0.80;93.30;;;;;;6213952;23;20050;-75
2021/11/29 05:24:59;;;;;;;0.03;0.03;;;0.90;93.30;;;;;;6214197;23;20047;-76
2021/11/29 05:27:25;;;;;;;0.20;0.20;;;0.80;93.20;;;;;;6211967;23;20000;-76
2021/11/29 05:29:51;;;;;;;0.10;0.10;;;0.90;93.20;;;;;;6212704;23;20012;-75
2021/11/29 05:32:17;;;;;;;0.10;0.10;;;0.80;93.20;;;;;;6187028;23;20000;-76
2021/11/29 05:34:43;;;;;;;0.03;0.03;;;0.90;93.20;;;;;;6214283;23;20007;-76
2021/11/29 05:37:08;;;;;;;0.00;0.00;;;0.80;93.20;;;;;;6187596;23;20420;-75
2021/11/29 05:39:35;;;;;;;0.13;0.10;;;0.80;93.20;;;;;;6213849;23;20377;-75
2021/11/29 05:42:00;;;;;;;0.30;0.20;;;0.80;93.20;;;;;;6163409;23;20001;-76
2021/11/29 05:44:26;;;;;;;0.03;0.03;;;0.80;93.20;;;;;;6214822;23;20026;-75
2021/11/29 05:46:52;;;;;;;0.10;0.10;;;0.80;93.20;;;;;;6213395;23;20012;-75
2021/11/29 05:49:17;;;;;;;0.10;0.10;;;0.80;93.30;;;;;;6214948;23;20023;-75
2021/11/29 05:51:44;;;;;;;0.00;0.00;;;0.80;93.20;;;;;;6213364;23;20051;-76
2021/11/29 05:54:10;;;;;;;0.15;0.10;;;0.80;93.20;;;;;;6213926;23;20020;-76
2021/11/29 05:56:36;;;;;;;0.20;0.10;;;0.70;93.20;;;;;;6214102;23;20413;-75
2021/11/29 05:59:02;;;;;;;0.22;0.13;;;0.70;93.20;;;;;;6189574;23;20001;-75
2021/11/29 06:01:28;;;;;;;0.10;0.10;;;0.70;93.30;;;;;;6214906;23;20004;-75
2021/11/29 06:03:54;;;;;;;0.10;0.10;;;0.70;93.30;;;;;;6213227;23;20075;-75
2021/11/29 06:06:20;;;;;;;0.15;0.10;;;0.70;93.30;;;;;;6214763;23;20008;-75
2021/11/29 06:08:45;;;;;;;0.17;0.17;;;0.70;93.30;;;;;;6214664;23;20324;-76
2021/11/29 06:11:11;;;;;;;0.13;0.13;;;0.70;93.30;;;;;;6194966;23;20004;-76
2021/11/29 06:13:38;;;;;;;0.98;0.10;;;0.70;93.30;;;;;;6214570;23;20028;-76
2021/11/29 06:16:04;;;;;;;0.45;0.22;;;0.70;93.30;;;;;;6212932;23;20004;-76
2021/11/29 06:18:30;;;;;;;0.32;0.20;;;0.80;93.30;;;;;;6213220;23;20092;-77
2021/11/29 06:20:55;;;;;;;0.28;0.15;;;0.80;93.30;;;;;;6214643;23;20027;-77
2021/11/29 06:23:22;;;;;;;0.15;0.15;;;0.80;93.30;;;;;;6200492;23;20005;-76
2021/11/29 06:25:48;;;;;;;0.22;0.10;;;0.90;93.20;;;;;;6187831;23;20459;-76
2021/11/29 06:28:13;;;;;;;0.57;0.13;;;0.80;93.20;;;;;;6214382;23;20030;-76
2021/11/29 06:30:39;;;;;;;0.20;0.20;;;0.80;93.20;;;;;;6214742;23;20000;-76
2021/11/29 06:33:06;;;;;;;0.13;0.13;;;0.90;93.30;;;;;;6214409;23;20007;-76
2021/11/29 06:35:33;;;;;;;0.45;0.38;;;0.80;93.20;;;;;;6214425;23;20001;-76
2021/11/29 06:38:02;;;;;;;0.43;0.38;;;0.90;93.20;;;;;;6214553;23;20005;-76
2021/11/29 06:40:28;;;;;;;0.57;0.50;;;1.00;93.30;;;;;;6214714;23;20001;-76
2021/11/29 06:42:55;;;;;;;0.52;0.32;;;1.00;93.20;;;;;;6209626;23;20005;-76
2021/11/29 06:45:21;;;;;;;0.65;0.28;;;1.00;93.10;;;;;;6214415;23;20009;-76
2021/11/29 06:47:47;;;;;;;0.73;0.28;;;1.00;93.10;;;;;;6212693;23;20012;-76
2021/11/29 06:50:14;;;;;;;0.38;0.25;;;1.00;93.10;;;;;;6214868;23;20004;-76
2021/11/29 06:52:40;;;;;;;1.23;0.30;;;1.00;93.10;;;;;;6187950;23;20471;-76
2021/11/29 06:55:11;;;;;;;0.70;0.20;;;1.00;93.10;;;;;;6163127;23;20005;-76
2021/11/29 06:57:37;;;;;;;0.22;0.22;;;1.00;93.10;;;;;;6164698;23;20005;-76
2021/11/29 07:00:05;;;;;;;0.30;0.30;;;1.00;93.20;;;;;;6214453;23;20371;-76
2021/11/29 07:02:31;;;;;;;0.30;0.22;;;1.00;93.20;;;;;;6188415;23;19997;-76
2021/11/29 07:04:57;;;;;;;0.40;0.40;;;1.10;93.20;;;;;;6215122;23;20055;-76
2021/11/29 07:07:23;;;;;;;0.88;0.55;;;1.20;93.20;;;;;;6163216;23;20345;-76
2021/11/29 07:09:48;;;;;;;0.60;0.50;;;1.20;93.40;;;;;;6187890;23;20066;-76
2021/11/29 07:12:15;;;;;;;1.75;0.40;;;1.30;93.10;;;;;;6214253;23;20110;-76
2021/11/29 07:14:42;;;;;;;0.98;0.52;;;1.40;93.40;;;;;;6214678;23;20328;-76
2021/11/29 07:17:08;;;;;;;0.65;0.35;;;1.30;93.00;;;;;;6212902;23;20005;-77
2021/11/29 07:19:34;;;;;;;1.20;0.38;;;1.40;93.00;;;;;;6214155;23;20078;-76
2021/11/29 07:22:00;;;;;;;0.43;0.43;;;1.50;93.00;;;;;;6212510;23;20004;-76
2021/11/29 07:24:26;;;;;;;0.20;0.20;;;1.50;93.00;;;;;;6214075;23;20918;-77
2021/11/29 07:26:51;;;;;;;0.40;0.40;;;1.50;92.90;;;;;;6190418;23;20005;-76
2021/11/29 07:29:17;;;;;;;0.65;0.28;;;1.50;92.90;;;;;;6187429;23;20019;-77
2021/11/29 07:31:44;;;;;;;0.40;0.40;;;1.50;92.90;;;;;;6187339;23;20004;-77
2021/11/29 07:34:10;;;;;;;0.70;0.40;;;1.50;92.90;;;;;;6212573;23;20417;-77
2021/11/29 07:36:36;;;;;;;0.52;0.30;;;1.60;92.90;;;;;;6214350;23;19997;-77
2021/11/29 07:39:03;;;;;;;0.82;0.38;;;1.50;92.90;;;;;;6213054;23;20027;-76
2021/11/29 07:41:29;;;;;;;0.40;0.40;;;1.60;93.00;;;;;;6214606;23;20328;-76
2021/11/29 07:43:55;;;;;;;0.38;0.38;;;1.60;92.90;;;;;;6214954;23;20055;-77
2021/11/29 07:46:21;;;;;;;0.60;0.40;;;1.60;92.90;;;;;;6188308;23;20062;-76
2021/11/29 07:48:46;;;;;;;1.00;0.40;;;1.60;92.90;;;;;;6212716;23;20034;-76
2021/11/29 07:51:12;;;;;;;1.00;0.30;;;1.60;93.00;;;;;;6214390;23;20019;-76
2021/11/29 07:53:38;;;;;;;0.38;0.38;;;1.60;93.00;;;;;;6187783;23;20005;-77
2021/11/29 07:56:04;;;;;;;0.20;0.20;;;1.60;93.00;;;;;;6214520;23;20001;-77
2021/11/29 07:58:30;;;;;;;0.30;0.15;;;1.70;93.00;;;;;;6214464;23;20032;-77
2021/11/29 08:00:56;;;;;;;0.60;0.40;;;1.70;93.00;;;;;;6200187;23;20016;-76
2021/11/29 08:03:21;;;;;;;0.22;0.20;;;1.70;93.00;;;;;;6196815;23;20003;-77
2021/11/29 08:05:47;;;;;;;0.35;0.30;;;1.70;93.00;;;;;;6162594;23;20005;-77
2021/11/29 08:08:14;;;;;;;0.20;0.20;;;1.70;93.00;;;;;;6212674;23;20005;-77
2021/11/29 08:10:41;;;;;;;0.63;0.28;;;1.80;93.00;;;;;;6187641;23;20033;-77
2021/11/29 08:13:08;;;;;;;0.25;0.25;;;1.80;93.00;;;;;;6214421;23;20000;-77
2021/11/29 08:15:37;;;;;;;0.20;0.20;;;1.80;93.00;;;;;;6214633;23;20060;-77
2021/11/29 08:18:04;;;;;;;0.28;0.28;;;1.90;93.00;;;;;;6214481;23;20064;-77
2021/11/29 08:20:30;;;;;;;0.60;0.22;;;1.90;93.00;;;;;;6162552;23;20456;-77
2021/11/29 08:22:56;;;;;;;0.30;0.30;;;1.90;92.90;;;;;;6212521;23;20001;-77
2021/11/29 08:25:21;;;;;;;0.20;0.20;;;2.00;93.00;;;;;;6187703;23;20000;-78
2021/11/29 08:27:53;;;;;;;0.20;0.20;;;2.00;92.90;;;;;;6206147;23;20021;-78
2021/11/29 08:37:20;;;;;;;1.05;0.22;;;2.10;92.90;;;;;;5919715;24;20021;-77
2021/11/29 08:39:46;;;;;;;0.77;0.30;;;2.20;92.80;;;;;;5923665;24;20450;-77
2021/11/29 08:42:11;;;;;;;0.20;0.20;;;2.20;92.80;;;;;;5924288;24;20017;-78
2021/11/29 08:44:37;;;;;;;0.17;0.17;;;2.30;92.80;;;;;;5946727;24;20014;-76
2021/11/29 08:47:03;;;;;;;0.17;0.17;;;2.30;92.80;;;;;;5923918;24;20025;-78
2021/11/29 08:49:29;;;;;;;1.05;0.30;;;2.30;92.80;;;;;;5923408;24;20044;-78
2021/11/29 08:51:56;;;;;;;0.15;0.10;;;2.30;92.80;;;;;;5964798;24;20437;-77
2021/11/29 08:54:23;;;;;;;0.30;0.20;;;2.50;92.80;;;;;;5946235;24;20374;-77
2021/11/29 08:56:49;;;;;;;0.05;0.05;;;2.50;92.80;;;;;;5946187;24;20017;-77
2021/11/29 08:59:17;;;;;;;0.50;0.40;;;2.50;92.80;;;;;;5946560;24;20866;-78
2021/11/29 09:01:44;;;;;;;0.10;0.10;;;2.60;92.80;;;;;;5941641;24;20440;-77
2021/11/29 09:04:10;;;;;;;0.55;0.20;;;2.70;92.70;;;;;;6007602;23;20019;-77
2021/11/29 09:06:37;;;;;;;0.60;0.17;;;2.80;92.70;;;;;;6061635;23;20156;-77
2021/11/29 09:09:05;;;;;;;0.17;0.10;;;2.80;92.70;;;;;;6063489;23;20015;-76
2021/11/29 09:11:31;;;;;;;0.20;0.20;;;2.80;92.60;;;;;;6069793;23;20037;-78
2021/11/29 09:13:57;;;;;;;0.90;0.20;;;2.90;92.60;;;;;;6147641;23;20023;-77
2021/11/29 09:16:24;;;;;;;1.55;0.17;;;3.00;92.60;;;;;;6173878;23;20013;-74
2021/11/29 09:18:50;;;;;;;0.38;0.20;;;3.00;92.60;;;;;;6168936;23;20013;-75
2021/11/29 09:21:18;;;;;;;0.77;0.15;;;3.10;92.60;;;;;;6169445;23;20051;-76
2021/11/29 09:23:45;;;;;;;0.30;0.25;;;3.20;92.60;;;;;;6217738;23;20393;-76
2021/11/29 09:26:12;;;;;;;0.25;0.25;;;3.20;92.60;;;;;;6220618;23;20016;-77
2021/11/29 09:28:38;;;;;;;0.17;0.15;;;3.30;92.60;;;;;;6214292;23;20381;-76
2021/11/29 09:31:05;;;;;;;0.10;0.10;;;3.40;92.50;;;;;;6189454;23;20016;-76
2021/11/29 09:33:31;;;;;;;0.10;0.10;;;3.50;92.50;;;;;;6188236;23;20429;-78
2021/11/29 09:35:57;;;;;;;0.20;0.17;;;3.60;92.40;;;;;;6213978;23;20005;-77
2021/11/29 09:38:23;;;;;;;0.35;0.15;;;3.60;92.40;;;;;;6213769;23;20393;-76
2021/11/29 09:40:49;;;;;;;0.20;0.13;;;3.60;92.30;;;;;;6186730;23;20012;-77
2021/11/29 09:43:17;;;;;;;0.10;0.10;;;3.70;92.30;;;;;;6212428;23;20103;-76
2021/11/29 09:45:45;;;;;;;0.17;0.17;;;3.90;92.30;;;;;;6213587;23;20091;-78
2021/11/29 09:48:12;;;;;;;0.10;0.10;;;4.00;92.30;;;;;;6212109;23;20099;-76
2021/11/29 09:50:42;;;;;;;0.63;0.25;;;4.10;92.30;;;;;;6213375;23;20344;-77
2021/11/29 09:53:09;;;;;;;0.43;0.17;;;4.10;92.20;;;;;;6212585;23;20023;-77
2021/11/29 09:55:36;;;;;;;0.20;0.15;;;4.20;92.10;;;;;;6186460;23;20104;-77
2021/11/29 09:58:04;;;;;;;0.40;0.20;;;4.30;92.10;;;;;;6212737;23;20017;-78
2021/11/29 10:00:34;;;;;;;0.20;0.10;;;4.30;92.10;;;;;;6190413;23;20075;-81
2021/11/29 10:03:00;;;;;;;0.57;0.20;;;4.40;92.10;;;;;;6211891;23;20009;-77
2021/11/29 10:05:27;;;;;;;0.30;0.15;;;4.40;92.10;;;;;;6211689;23;20344;-78
2021/11/29 10:07:53;;;;;;;0.20;0.10;;;4.40;92.10;;;;;;6211551;23;20051;-77
2021/11/29 10:10:25;;;;;;;0.30;0.20;;;4.40;92.10;;;;;;6211704;23;20009;-78
2021/11/29 10:12:56;;;;;;;0.10;0.10;;;4.40;92.10;;;;;;6217418;23;20015;-79
2021/11/29 10:15:31;;;;;;;;;;;4.40;92.10;;;;;;6219726;23;20005;-79
2021/11/29 10:18:14;;;;;;;0.05;0.05;;;4.50;92.10;;;;;;6212028;23;19930;-78
2021/11/29 10:20:59;;;;;;;0.10;0.10;;;4.50;92.10;;;;;;6222483;23;20344;-78
2021/11/29 10:23:30;;;;;;;1.73;0.20;;;4.50;92.10;;;;;;6216589;23;20063;-77
2021/11/29 10:25:58;;;;;;;0.80;0.22;;;4.60;92.10;;;;;;6214913;23;20001;-78
2021/11/29 10:28:28;;;;;;;0.30;0.20;;;4.60;92.10;;;;;;6214227;23;20020;-78
2021/11/29 10:31:56;;;;;;;0.40;0.10;;;4.60;92.20;;;;;;6212958;23;20036;-78
2021/11/29 10:34:26;;;;;;;0.10;0.10;;;4.70;92.20;;;;;;6162355;23;20240;-80
2021/11/29 10:36:58;;;;;;;0.70;0.20;;;4.70;92.20;;;;;;6192114;23;20336;-79
2021/11/29 10:39:28;;;;;;;0.10;0.10;;;4.80;92.10;;;;;;6214383;23;20058;-78
2021/11/29 10:41:57;;;;;;;0.10;0.10;;;4.90;92.10;;;;;;6215197;23;20016;-79
2021/11/29 10:44:25;;;;;;;0.28;0.10;;;4.90;92.10;;;;;;6216808;23;20050;-78
2021/11/29 10:46:56;;;;;;;0.10;0.10;;;5.00;92.10;;;;;;6215538;23;20424;-80
2021/11/29 10:49:26;;;;;;;0.10;0.10;;;5.00;92.00;;;;;;6213915;23;20009;-81
2021/11/29 10:51:55;;;;;;;0.38;0.10;;;5.10;92.10;;;;;;6224565;23;20005;-79
2021/11/29 10:54:25;;;;;;;0.13;0.13;;;5.10;92.10;;;;;;6222400;23;20080;-78
2021/11/29 10:56:52;;;;;;;0.30;0.22;;;5.20;92.00;;;;;;6227086;23;20005;-79
2021/11/29 10:59:20;;;;;;;0.10;0.10;;;5.20;92.00;;;;;;6218602;23;20062;-78
2021/11/29 11:01:53;;;;;;;0.20;0.20;;;5.10;91.90;;;;;;6201675;23;20060;-78
2021/11/29 11:04:28;;;;;;;0.10;0.10;;;5.10;91.90;;;;;;6220834;23;20005;-79
2021/11/29 11:06:59;;;;;;;0.63;0.10;;;5.10;92.00;;;;;;6191794;23;20544;-80
2021/11/29 11:09:33;;;;;;;0.10;0.10;;;5.10;92.00;;;;;;6166527;23;20013;-80
2021/11/29 11:12:02;;;;;;;1.00;0.20;;;5.10;92.10;;;;;;6214144;23;20340;-78
2021/11/29 11:14:32;;;;;;;0.10;0.10;;;5.00;92.10;;;;;;6216780;23;20001;-78
2021/11/29 11:17:09;;;;;;;0.20;0.20;;;5.10;92.20;;;;;;6214247;23;20004;-78
2021/11/29 11:19:57;;;;;;;0.80;0.30;;;5.20;92.20;;;;;;6213877;23;20316;-78
2021/11/29 11:22:28;;;;;;;0.40;0.30;;;5.10;92.20;;;;;;6188510;23;20020;-80
2021/11/29 11:24:56;;;;;;;;;;;5.20;92.20;;;;;;6164174;23;20009;-80
2021/11/29 11:27:31;;;;;;;0.63;0.25;;;5.30;92.20;;;;;;6182837;23;19934;-81
2021/11/29 11:30:30;;;;;;;0.30;0.30;;;5.30;92.10;;;;;;6156794;23;20088;-78
2021/11/29 11:32:59;;;;;;;0.15;0.13;;;5.40;92.00;;;;;;6192717;23;20012;-82
2021/11/29 11:35:39;;;;;;;0.65;0.30;;;5.50;91.90;;;;;;6137686;23;20020;-82
2021/11/29 11:38:13;;;;;;;0.10;0.10;;;5.50;91.90;;;;;;6169347;23;20012;-83
2021/11/29 11:40:42;;;;;;;0.15;0.15;;;5.60;91.90;;;;;;6122398;23;20049;-79
2021/11/29 11:43:51;;;;;;;0.15;0.15;;;5.70;91.90;;;;;;6123729;23;20044;-81
2021/11/29 11:46:21;;;;;;;0.20;0.20;;;5.80;91.90;;;;;;6126470;23;20025;-82
2021/11/29 11:49:27;;;;;;;0.35;0.20;;;5.90;91.80;;;;;;6118045;23;20030;-82
2021/11/29 11:51:53;;;;;;;0.17;0.17;;;6.00;91.70;;;;;;6004901;23;20020;-80
2021/11/29 11:54:19;;;;;;;0.25;0.20;;;6.00;91.70;;;;;;5984014;23;20047;-80
2021/11/29 11:56:45;;;;;;;0.75;0.40;;;6.10;91.60;;;;;;6008020;23;20019;-79
2021/11/29 11:59:15;;;;;;;0.13;0.13;;;6.30;91.60;;;;;;6011613;23;20063;-80
2021/11/29 12:01:44;;;;;;;0.40;0.40;;;6.40;91.50;;;;;;6041247;23;20020;-79
2021/11/29 12:04:12;;;;;;;0.30;0.20;;;6.50;91.40;;;;;;6017142;23;20035;-79
2021/11/29 12:06:40;;;;;;;1.58;0.40;;;6.50;91.30;;;;;;6015769;23;20019;-80
2021/11/29 12:09:08;;;;;;;1.80;0.30;;;6.60;91.30;;;;;;6013893;23;20020;-81
2021/11/29 12:11:38;;;;;;;0.55;0.40;;;6.70;91.30;;;;;;6037574;23;20099;-80
2021/11/29 12:14:17;;;;;;;0.47;0.30;;;6.80;91.20;;;;;;6037379;23;20026;-80
2021/11/29 12:16:48;;;;;;;0.65;0.20;;;6.80;91.20;;;;;;6060597;23;20021;-80
2021/11/29 12:19:34;;;;;;;0.20;0.20;;;6.90;91.50;;;;;;6119286;23;20438;-80
2021/11/29 12:22:24;;;;;;;0.30;0.20;;;6.90;91.20;;;;;;6135335;23;20018;-79
2021/11/29 12:25:05;;;;;;;0.30;0.22;;;6.90;91.10;;;;;;6071843;23;20026;-79
2021/11/29 12:27:45;;;;;;;0.20;0.20;;;6.80;91.20;;;;;;6107573;23;20092;-80
2021/11/29 12:30:17;;;;;;;1.48;0.30;;;6.80;91.20;;;;;;6227034;23;20028;-80
2021/11/29 12:32:52;;;;;;;0.20;0.20;;;6.90;91.30;;;;;;6227405;23;20032;-80
2021/11/29 12:35:30;;;;;;;0.43;0.20;;;6.80;91.20;;;;;;6226981;23;20325;-79
2021/11/29 12:38:06;;;;;;;1.40;0.30;;;6.90;91.20;;;;;;6223326;23;20167;-80
2021/11/29 12:40:47;;;;;;;0.50;0.30;;;6.90;91.30;;;;;;6200314;23;20428;-80
2021/11/29 12:43:31;;;;;;;0.20;0.20;;;6.80;91.20;;;;;;6227923;23;20087;-79
2021/11/29 12:46:31;;;;;;;0.50;0.30;;;6.90;91.20;;;;;;6232357;23;20016;-80
2021/11/29 12:49:05;;;;;;;1.13;0.35;;;7.00;91.20;;;;;;6196486;23;20043;-80
2021/11/29 12:51:53;;;;;;;0.35;0.25;;;7.00;91.20;;;;;;6219161;23;20080;-79
2021/11/29 12:54:40;;;;;;;1.02;0.47;;;7.00;91.10;;;;;;6222128;23;20015;-80
2021/11/29 12:57:29;;;;;;;0.20;0.20;;;7.20;91.20;;;;;;6222577;23;20011;-80
2021/11/29 12:59:59;;;;;;;0.70;0.40;;;7.20;91.10;;;;;;6199389;23;20008;-78
2021/11/29 13:02:51;;;;;;;0.47;0.30;;;7.20;91.00;;;;;;6220071;23;20009;-78
2021/11/29 13:05:38;;;;;;;0.85;0.30;;;7.20;91.00;;;;;;6218121;23;20012;-80
2021/11/29 13:08:18;;;;;;;0.52;0.20;;;7.30;90.90;;;;;;6200744;23;20005;-80
2021/11/29 13:11:09;;;;;;;0.20;0.20;;;7.30;90.90;;;;;;6191950;23;20011;-80